sensor_id;sensor_type;location;lat;lon;timestamp;temperature;humidity
83102;SHT31;72973;51.784;4.660;2024-02-15T00:01:03;14.27;83.33
83102;SHT31;72973;51.784;4.660;2024-02-15T00:03:30;14.24;83.31
83102;SHT31;72973;51.784;4.660;2024-02-15T00:05:58;14.26;83.35
83102;SHT31;72973;51.784;4.660;2024-02-15T00:08:24;14.29;83.14
83102;SHT31;72973;51.784;4.660;2024-02-15T00:10:53;14.30;83.30
83102;SHT31;72973;51.784;4.660;2024-02-15T00:13:19;14.29;83.41
83102;SHT31;72973;51.784;4.660;2024-02-15T00:15:46;14.27;83.47
83102;SHT31;72973;51.784;4.660;2024-02-15T00:18:16;14.20;83.42
83102;SHT31;72973;51.784;4.660;2024-02-15T00:20:42;14.30;83.27
83102;SHT31;72973;51.784;4.660;2024-02-15T00:23:10;14.24;83.45
83102;SHT31;72973;51.784;4.660;2024-02-15T00:25:37;14.26;83.63
83102;SHT31;72973;51.784;4.660;2024-02-15T00:28:03;14.30;83.56
83102;SHT31;72973;51.784;4.660;2024-02-15T00:30:30;14.27;83.60
83102;SHT31;72973;51.784;4.660;2024-02-15T00:32:57;14.33;83.47
83102;SHT31;72973;51.784;4.660;2024-02-15T00:35:24;14.38;83.42
83102;SHT31;72973;51.784;4.660;2024-02-15T00:37:50;14.31;83.46
83102;SHT31;72973;51.784;4.660;2024-02-15T00:40:17;14.34;83.57
83102;SHT31;72973;51.784;4.660;2024-02-15T00:42:43;14.34;83.51
83102;SHT31;72973;51.784;4.660;2024-02-15T00:45:11;14.33;83.44
83102;SHT31;72973;51.784;4.660;2024-02-15T00:47:37;14.37;83.46
83102;SHT31;72973;51.784;4.660;2024-02-15T00:50:04;14.33;83.49
83102;SHT31;72973;51.784;4.660;2024-02-15T00:52:31;14.29;83.54
83102;SHT31;72973;51.784;4.660;2024-02-15T00:54:57;14.24;83.64
83102;SHT31;72973;51.784;4.660;2024-02-15T00:57:24;14.24;83.63
83102;SHT31;72973;51.784;4.660;2024-02-15T00:59:50;14.31;83.49
83102;SHT31;72973;51.784;4.660;2024-02-15T01:02:18;14.31;83.32
83102;SHT31;72973;51.784;4.660;2024-02-15T01:04:44;14.30;83.34
83102;SHT31;72973;51.784;4.660;2024-02-15T01:07:12;14.36;83.38
83102;SHT31;72973;51.784;4.660;2024-02-15T01:09:39;14.33;83.22
83102;SHT31;72973;51.784;4.660;2024-02-15T01:12:05;14.30;83.40
83102;SHT31;72973;51.784;4.660;2024-02-15T01:14:32;14.27;83.39
83102;SHT31;72973;51.784;4.660;2024-02-15T01:16:58;14.27;83.49
83102;SHT31;72973;51.784;4.660;2024-02-15T01:19:25;14.30;83.39
83102;SHT31;72973;51.784;4.660;2024-02-15T01:21:51;14.20;83.17
83102;SHT31;72973;51.784;4.660;2024-02-15T01:24:19;14.22;83.23
83102;SHT31;72973;51.784;4.660;2024-02-15T01:26:46;14.13;83.44
83102;SHT31;72973;51.784;4.660;2024-02-15T01:29:14;14.02;83.67
83102;SHT31;72973;51.784;4.660;2024-02-15T01:31:40;14.06;83.77
83102;SHT31;72973;51.784;4.660;2024-02-15T01:34:07;14.03;83.87
83102;SHT31;72973;51.784;4.660;2024-02-15T01:36:33;14.02;83.74
83102;SHT31;72973;51.784;4.660;2024-02-15T01:38:59;13.96;83.79
83102;SHT31;72973;51.784;4.660;2024-02-15T01:41:26;13.93;83.59
83102;SHT31;72973;51.784;4.660;2024-02-15T01:43:52;13.89;83.78
83102;SHT31;72973;51.784;4.660;2024-02-15T01:46:20;13.85;83.98
83102;SHT31;72973;51.784;4.660;2024-02-15T01:48:47;13.85;83.88
83102;SHT31;72973;51.784;4.660;2024-02-15T01:51:15;13.85;83.88
83102;SHT31;72973;51.784;4.660;2024-02-15T01:53:43;13.78;84.05
83102;SHT31;72973;51.784;4.660;2024-02-15T01:56:13;13.82;84.26
83102;SHT31;72973;51.784;4.660;2024-02-15T01:58:42;13.83;83.94
83102;SHT31;72973;51.784;4.660;2024-02-15T02:01:12;13.83;84.00
83102;SHT31;72973;51.784;4.660;2024-02-15T02:03:39;13.86;83.97
83102;SHT31;72973;51.784;4.660;2024-02-15T02:06:06;13.93;83.97
83102;SHT31;72973;51.784;4.660;2024-02-15T02:08:33;13.95;83.96
83102;SHT31;72973;51.784;4.660;2024-02-15T02:11:00;13.93;83.74
83102;SHT31;72973;51.784;4.660;2024-02-15T02:13:27;13.93;83.87
83102;SHT31;72973;51.784;4.660;2024-02-15T02:15:54;13.87;83.62
83102;SHT31;72973;51.784;4.660;2024-02-15T02:18:20;13.87;83.61
83102;SHT31;72973;51.784;4.660;2024-02-15T02:20:47;13.93;83.56
83102;SHT31;72973;51.784;4.660;2024-02-15T02:23:14;13.96;83.50
83102;SHT31;72973;51.784;4.660;2024-02-15T02:25:42;14.03;83.46
83102;SHT31;72973;51.784;4.660;2024-02-15T02:28:10;14.02;83.46
83102;SHT31;72973;51.784;4.660;2024-02-15T02:30:36;13.95;83.57
83102;SHT31;72973;51.784;4.660;2024-02-15T02:33:03;13.98;83.61
83102;SHT31;72973;51.784;4.660;2024-02-15T02:35:33;14.01;83.65
83102;SHT31;72973;51.784;4.660;2024-02-15T02:37:59;14.08;83.63
83102;SHT31;72973;51.784;4.660;2024-02-15T02:40:26;14.06;83.76
83102;SHT31;72973;51.784;4.660;2024-02-15T02:42:56;14.05;83.87
83102;SHT31;72973;51.784;4.660;2024-02-15T02:45:25;13.98;84.25
83102;SHT31;72973;51.784;4.660;2024-02-15T02:47:52;13.98;84.18
83102;SHT31;72973;51.784;4.660;2024-02-15T02:50:20;13.98;84.14
83102;SHT31;72973;51.784;4.660;2024-02-15T02:52:47;13.96;84.22
83102;SHT31;72973;51.784;4.660;2024-02-15T02:55:15;14.02;84.29
83102;SHT31;72973;51.784;4.660;2024-02-15T02:57:41;14.02;84.23
83102;SHT31;72973;51.784;4.660;2024-02-15T03:00:13;13.95;84.44
83102;SHT31;72973;51.784;4.660;2024-02-15T03:02:48;14.01;84.23
83102;SHT31;72973;51.784;4.660;2024-02-15T03:05:14;14.05;84.10
83102;SHT31;72973;51.784;4.660;2024-02-15T03:07:41;14.02;84.26
83102;SHT31;72973;51.784;4.660;2024-02-15T03:10:08;14.03;84.19
83102;SHT31;72973;51.784;4.660;2024-02-15T03:12:39;14.06;84.21
83102;SHT31;72973;51.784;4.660;2024-02-15T03:15:07;14.05;84.37
83102;SHT31;72973;51.784;4.660;2024-02-15T03:17:43;14.01;84.46
83102;SHT31;72973;51.784;4.660;2024-02-15T03:20:11;13.93;84.82
83102;SHT31;72973;51.784;4.660;2024-02-15T03:22:39;13.90;85.17
83102;SHT31;72973;51.784;4.660;2024-02-15T03:25:06;13.90;85.27
83102;SHT31;72973;51.784;4.660;2024-02-15T03:27:36;13.96;85.20
83102;SHT31;72973;51.784;4.660;2024-02-15T03:30:06;13.96;85.27
83102;SHT31;72973;51.784;4.660;2024-02-15T03:32:33;13.92;85.40
83102;SHT31;72973;51.784;4.660;2024-02-15T03:34:59;13.87;85.66
83102;SHT31;72973;51.784;4.660;2024-02-15T03:37:27;13.87;85.73
83102;SHT31;72973;51.784;4.660;2024-02-15T03:39:53;13.90;85.63
83102;SHT31;72973;51.784;4.660;2024-02-15T03:42:20;13.96;85.74
83102;SHT31;72973;51.784;4.660;2024-02-15T03:44:46;13.90;85.76
83102;SHT31;72973;51.784;4.660;2024-02-15T03:47:14;13.86;85.89
83102;SHT31;72973;51.784;4.660;2024-02-15T03:49:41;13.89;85.94
83102;SHT31;72973;51.784;4.660;2024-02-15T03:52:08;13.86;86.11
83102;SHT31;72973;51.784;4.660;2024-02-15T03:54:36;13.86;86.32
83102;SHT31;72973;51.784;4.660;2024-02-15T03:57:03;13.86;86.25
83102;SHT31;72973;51.784;4.660;2024-02-15T03:59:29;13.86;86.36
83102;SHT31;72973;51.784;4.660;2024-02-15T04:01:58;13.86;86.23
83102;SHT31;72973;51.784;4.660;2024-02-15T04:04:24;13.83;86.53
83102;SHT31;72973;51.784;4.660;2024-02-15T04:06:52;13.81;86.66
83102;SHT31;72973;51.784;4.660;2024-02-15T04:09:18;13.82;86.48
83102;SHT31;72973;51.784;4.660;2024-02-15T04:11:49;13.86;86.63
83102;SHT31;72973;51.784;4.660;2024-02-15T04:14:19;13.92;86.25
83102;SHT31;72973;51.784;4.660;2024-02-15T04:16:45;13.85;86.43
83102;SHT31;72973;51.784;4.660;2024-02-15T04:19:12;13.89;86.27
83102;SHT31;72973;51.784;4.660;2024-02-15T04:21:38;13.86;86.32
83102;SHT31;72973;51.784;4.660;2024-02-15T04:24:06;13.83;86.51
83102;SHT31;72973;51.784;4.660;2024-02-15T04:26:32;13.79;86.51
83102;SHT31;72973;51.784;4.660;2024-02-15T04:28:59;13.83;86.62
83102;SHT31;72973;51.784;4.660;2024-02-15T04:31:26;13.79;86.75
83102;SHT31;72973;51.784;4.660;2024-02-15T04:33:55;13.81;86.66
83102;SHT31;72973;51.784;4.660;2024-02-15T04:36:22;13.87;86.26
83102;SHT31;72973;51.784;4.660;2024-02-15T04:38:50;13.85;86.15
83102;SHT31;72973;51.784;4.660;2024-02-15T04:41:18;13.85;86.25
83102;SHT31;72973;51.784;4.660;2024-02-15T04:43:50;13.82;86.30
83102;SHT31;72973;51.784;4.660;2024-02-15T04:46:17;13.83;86.33
83102;SHT31;72973;51.784;4.660;2024-02-15T04:48:43;13.83;86.32
83102;SHT31;72973;51.784;4.660;2024-02-15T04:51:10;13.86;86.50
83102;SHT31;72973;51.784;4.660;2024-02-15T04:53:37;13.81;86.38
83102;SHT31;72973;51.784;4.660;2024-02-15T04:56:05;13.82;86.58
83102;SHT31;72973;51.784;4.660;2024-02-15T04:58:40;13.85;86.43
83102;SHT31;72973;51.784;4.660;2024-02-15T05:01:17;13.87;86.45
83102;SHT31;72973;51.784;4.660;2024-02-15T05:03:44;13.83;86.25
83102;SHT31;72973;51.784;4.660;2024-02-15T05:06:11;13.90;86.34
83102;SHT31;72973;51.784;4.660;2024-02-15T05:08:40;13.89;86.27
83102;SHT31;72973;51.784;4.660;2024-02-15T05:11:13;13.81;86.47
83102;SHT31;72973;51.784;4.660;2024-02-15T05:13:48;13.58;87.01
83102;SHT31;72973;51.784;4.660;2024-02-15T05:16:18;13.47;87.49
83102;SHT31;72973;51.784;4.660;2024-02-15T05:18:45;13.53;87.44
83102;SHT31;72973;51.784;4.660;2024-02-15T05:21:12;13.45;88.04
83102;SHT31;72973;51.784;4.660;2024-02-15T05:23:39;13.48;88.29
83102;SHT31;72973;51.784;4.660;2024-02-15T05:26:06;13.33;88.40
83102;SHT31;72973;51.784;4.660;2024-02-15T05:28:33;13.21;88.57
83102;SHT31;72973;51.784;4.660;2024-02-15T05:31:14;13.31;88.89
83102;SHT31;72973;51.784;4.660;2024-02-15T05:33:44;13.40;88.62
83102;SHT31;72973;51.784;4.660;2024-02-15T05:36:11;13.40;88.44
83102;SHT31;72973;51.784;4.660;2024-02-15T05:38:38;13.38;88.60
83102;SHT31;72973;51.784;4.660;2024-02-15T05:41:05;13.44;88.47
83102;SHT31;72973;51.784;4.660;2024-02-15T05:43:34;13.51;88.31
83102;SHT31;72973;51.784;4.660;2024-02-15T05:46:03;13.53;88.22
83102;SHT31;72973;51.784;4.660;2024-02-15T05:48:29;13.50;87.93
83102;SHT31;72973;51.784;4.660;2024-02-15T05:50:56;13.59;87.76
83102;SHT31;72973;51.784;4.660;2024-02-15T05:53:23;13.58;88.09
83102;SHT31;72973;51.784;4.660;2024-02-15T05:55:51;13.54;88.26
83102;SHT31;72973;51.784;4.660;2024-02-15T05:58:17;13.61;87.88
83102;SHT31;72973;51.784;4.660;2024-02-15T06:00:44;13.62;87.77
83102;SHT31;72973;51.784;4.660;2024-02-15T06:03:11;13.61;87.79
83102;SHT31;72973;51.784;4.660;2024-02-15T06:05:38;13.61;88.05
83102;SHT31;72973;51.784;4.660;2024-02-15T06:08:05;13.57;88.16
83102;SHT31;72973;51.784;4.660;2024-02-15T06:10:32;13.53;88.13
83102;SHT31;72973;51.784;4.660;2024-02-15T06:12:58;13.34;88.50
83102;SHT31;72973;51.784;4.660;2024-02-15T06:15:26;13.26;88.74
83102;SHT31;72973;51.784;4.660;2024-02-15T06:17:52;13.38;89.03
83102;SHT31;72973;51.784;4.660;2024-02-15T06:20:19;13.40;88.87
83102;SHT31;72973;51.784;4.660;2024-02-15T06:22:49;13.37;88.79
83102;SHT31;72973;51.784;4.660;2024-02-15T06:25:15;13.41;88.87
83102;SHT31;72973;51.784;4.660;2024-02-15T06:27:47;13.48;89.12
83102;SHT31;72973;51.784;4.660;2024-02-15T06:30:14;13.47;89.21
83102;SHT31;72973;51.784;4.660;2024-02-15T06:32:59;13.51;89.15
83102;SHT31;72973;51.784;4.660;2024-02-15T06:35:44;13.58;88.87
83102;SHT31;72973;51.784;4.660;2024-02-15T06:38:29;13.53;89.08
83102;SHT31;72973;51.784;4.660;2024-02-15T06:41:14;13.50;89.19
83102;SHT31;72973;51.784;4.660;2024-02-15T06:43:40;13.50;88.92
83102;SHT31;72973;51.784;4.660;2024-02-15T06:46:06;13.51;88.93
83102;SHT31;72973;51.784;4.660;2024-02-15T06:48:34;13.53;88.85
83102;SHT31;72973;51.784;4.660;2024-02-15T06:51:00;13.53;88.70
83102;SHT31;72973;51.784;4.660;2024-02-15T06:53:26;13.47;88.44
83102;SHT31;72973;51.784;4.660;2024-02-15T06:55:53;13.53;88.75
83102;SHT31;72973;51.784;4.660;2024-02-15T06:58:19;13.48;88.71
83102;SHT31;72973;51.784;4.660;2024-02-15T07:00:48;13.50;88.38
83102;SHT31;72973;51.784;4.660;2024-02-15T07:03:16;13.53;88.26
83102;SHT31;72973;51.784;4.660;2024-02-15T07:05:45;13.54;87.87
83102;SHT31;72973;51.784;4.660;2024-02-15T07:08:11;13.62;88.10
83102;SHT31;72973;51.784;4.660;2024-02-15T07:10:39;13.62;87.77
83102;SHT31;72973;51.784;4.660;2024-02-15T07:13:05;13.65;87.92
83102;SHT31;72973;51.784;4.660;2024-02-15T07:15:35;13.68;87.69
83102;SHT31;72973;51.784;4.660;2024-02-15T07:18:05;13.69;87.36
83102;SHT31;72973;51.784;4.660;2024-02-15T07:20:36;13.68;87.39
83102;SHT31;72973;51.784;4.660;2024-02-15T07:23:02;13.71;87.25
83102;SHT31;72973;51.784;4.660;2024-02-15T07:25:29;13.65;87.30
83102;SHT31;72973;51.784;4.660;2024-02-15T07:27:56;13.74;87.46
83102;SHT31;72973;51.784;4.660;2024-02-15T07:30:23;13.75;87.08
83102;SHT31;72973;51.784;4.660;2024-02-15T07:32:49;13.58;87.59
83102;SHT31;72973;51.784;4.660;2024-02-15T07:35:16;13.58;87.78
83102;SHT31;72973;51.784;4.660;2024-02-15T07:38:01;13.64;87.72
83102;SHT31;72973;51.784;4.660;2024-02-15T07:40:31;13.69;87.51
83102;SHT31;72973;51.784;4.660;2024-02-15T07:42:57;13.72;87.59
83102;SHT31;72973;51.784;4.660;2024-02-15T07:45:24;13.72;87.40
83102;SHT31;72973;51.784;4.660;2024-02-15T07:47:50;13.78;87.25
83102;SHT31;72973;51.784;4.660;2024-02-15T07:50:18;13.68;87.42
83102;SHT31;72973;51.784;4.660;2024-02-15T07:52:47;13.75;87.29
83102;SHT31;72973;51.784;4.660;2024-02-15T07:55:14;13.72;87.40
83102;SHT31;72973;51.784;4.660;2024-02-15T07:57:41;13.76;87.12
83102;SHT31;72973;51.784;4.660;2024-02-15T08:00:08;13.68;87.29
83102;SHT31;72973;51.784;4.660;2024-02-15T08:02:38;13.61;87.56
83102;SHT31;72973;51.784;4.660;2024-02-15T08:07:40;13.62;87.72
83102;SHT31;72973;51.784;4.660;2024-02-15T08:10:07;13.65;87.52
83102;SHT31;72973;51.784;4.660;2024-02-15T08:12:43;13.71;87.39
83102;SHT31;72973;51.784;4.660;2024-02-15T08:15:10;13.82;87.31
83102;SHT31;72973;51.784;4.660;2024-02-15T08:17:45;13.83;87.19
83102;SHT31;72973;51.784;4.660;2024-02-15T08:20:15;13.85;87.01
83102;SHT31;72973;51.784;4.660;2024-02-15T08:22:47;13.75;87.30
83102;SHT31;72973;51.784;4.660;2024-02-15T08:25:14;13.79;87.13
83102;SHT31;72973;51.784;4.660;2024-02-15T08:27:47;13.86;87.21
83102;SHT31;72973;51.784;4.660;2024-02-15T08:30:16;13.92;86.94
83102;SHT31;72973;51.784;4.660;2024-02-15T08:32:43;14.03;86.98
83102;SHT31;72973;51.784;4.660;2024-02-15T08:35:12;14.06;86.58
83102;SHT31;72973;51.784;4.660;2024-02-15T08:37:40;14.08;86.59
83102;SHT31;72973;51.784;4.660;2024-02-15T08:40:09;14.08;86.38
83102;SHT31;72973;51.784;4.660;2024-02-15T08:42:42;14.08;86.37
83102;SHT31;72973;51.784;4.660;2024-02-15T08:45:09;14.06;86.32
83102;SHT31;72973;51.784;4.660;2024-02-15T08:47:37;14.10;86.35
83102;SHT31;72973;51.784;4.660;2024-02-15T08:50:07;14.16;86.25
83102;SHT31;72973;51.784;4.660;2024-02-15T08:52:38;14.13;86.12
83102;SHT31;72973;51.784;4.660;2024-02-15T08:55:06;14.12;86.19
83102;SHT31;72973;51.784;4.660;2024-02-15T08:57:33;14.13;86.16
83102;SHT31;72973;51.784;4.660;2024-02-15T09:00:03;14.12;85.98
83102;SHT31;72973;51.784;4.660;2024-02-15T09:02:32;14.10;85.86
83102;SHT31;72973;51.784;4.660;2024-02-15T09:04:59;14.17;85.82
83102;SHT31;72973;51.784;4.660;2024-02-15T09:07:25;14.20;85.65
83102;SHT31;72973;51.784;4.660;2024-02-15T09:09:51;14.19;85.67
83102;SHT31;72973;51.784;4.660;2024-02-15T09:12:18;14.22;85.78
83102;SHT31;72973;51.784;4.660;2024-02-15T09:14:44;14.26;85.53
83102;SHT31;72973;51.784;4.660;2024-02-15T09:17:11;14.33;85.49
83102;SHT31;72973;51.784;4.660;2024-02-15T09:19:37;14.31;85.23
83102;SHT31;72973;51.784;4.660;2024-02-15T09:22:03;14.44;85.12
83102;SHT31;72973;51.784;4.660;2024-02-15T09:24:33;14.47;84.93
83102;SHT31;72973;51.784;4.660;2024-02-15T09:27:01;14.44;84.92
83102;SHT31;72973;51.784;4.660;2024-02-15T09:29:30;14.52;84.20
83102;SHT31;72973;51.784;4.660;2024-02-15T09:31:59;14.51;84.64
83102;SHT31;72973;51.784;4.660;2024-02-15T09:34:28;14.52;84.21
83102;SHT31;72973;51.784;4.660;2024-02-15T09:36:54;14.52;84.31
83102;SHT31;72973;51.784;4.660;2024-02-15T09:39:22;14.58;83.97
83102;SHT31;72973;51.784;4.660;2024-02-15T09:41:49;14.60;84.18
83102;SHT31;72973;51.784;4.660;2024-02-15T09:44:25;14.70;84.13
83102;SHT31;72973;51.784;4.660;2024-02-15T09:47:02;14.67;83.77
83102;SHT31;72973;51.784;4.660;2024-02-15T09:49:39;14.75;84.19
83102;SHT31;72973;51.784;4.660;2024-02-15T09:52:06;14.79;83.47
83102;SHT31;72973;51.784;4.660;2024-02-15T09:54:41;14.87;83.76
83102;SHT31;72973;51.784;4.660;2024-02-15T09:57:11;15.05;83.41
83102;SHT31;72973;51.784;4.660;2024-02-15T09:59:38;15.16;83.76
83102;SHT31;72973;51.784;4.660;2024-02-15T10:02:06;15.27;83.12
83102;SHT31;72973;51.784;4.660;2024-02-15T10:04:38;15.29;83.19
83102;SHT31;72973;51.784;4.660;2024-02-15T10:07:05;15.27;82.58
83102;SHT31;72973;51.784;4.660;2024-02-15T10:09:35;15.30;82.58
83102;SHT31;72973;51.784;4.660;2024-02-15T10:12:03;15.32;82.93
83102;SHT31;72973;51.784;4.660;2024-02-15T10:14:33;15.33;82.77
83102;SHT31;72973;51.784;4.660;2024-02-15T10:17:06;15.42;82.74
83102;SHT31;72973;51.784;4.660;2024-02-15T10:19:38;15.57;82.73
83102;SHT31;72973;51.784;4.660;2024-02-15T10:22:09;15.61;82.62
83102;SHT31;72973;51.784;4.660;2024-02-15T10:24:37;15.63;82.66
83102;SHT31;72973;51.784;4.660;2024-02-15T10:27:05;15.61;82.81
83102;SHT31;72973;51.784;4.660;2024-02-15T10:29:37;15.64;82.79
83102;SHT31;72973;51.784;4.660;2024-02-15T10:32:06;15.67;83.00
83102;SHT31;72973;51.784;4.660;2024-02-15T10:34:44;15.73;82.56
83102;SHT31;72973;51.784;4.660;2024-02-15T10:37:14;15.68;82.02
83102;SHT31;72973;51.784;4.660;2024-02-15T10:39:45;15.71;82.27
83102;SHT31;72973;51.784;4.660;2024-02-15T10:42:11;15.70;82.58
83102;SHT31;72973;51.784;4.660;2024-02-15T10:44:39;15.78;82.66
83102;SHT31;72973;51.784;4.660;2024-02-15T10:47:07;15.85;82.74
83102;SHT31;72973;51.784;4.660;2024-02-15T10:49:35;16.01;82.52
83102;SHT31;72973;51.784;4.660;2024-02-15T10:52:05;15.97;81.83
83102;SHT31;72973;51.784;4.660;2024-02-15T10:55:03;16.00;82.48
83102;SHT31;72973;51.784;4.660;2024-02-15T10:57:31;16.09;82.50
83102;SHT31;72973;51.784;4.660;2024-02-15T11:00:00;16.23;81.80
83102;SHT31;72973;51.784;4.660;2024-02-15T11:03:00;16.29;81.73
83102;SHT31;72973;51.784;4.660;2024-02-15T11:05:35;16.33;81.62
83102;SHT31;72973;51.784;4.660;2024-02-15T11:08:05;16.36;81.56
83102;SHT31;72973;51.784;4.660;2024-02-15T11:10:34;16.36;81.84
83102;SHT31;72973;51.784;4.660;2024-02-15T11:13:02;16.40;81.34
83102;SHT31;72973;51.784;4.660;2024-02-15T11:15:43;16.45;81.19
83102;SHT31;72973;51.784;4.660;2024-02-15T11:18:12;16.70;81.27
83102;SHT31;72973;51.784;4.660;2024-02-15T11:23:08;17.00;80.28
83102;SHT31;72973;51.784;4.660;2024-02-15T11:25:38;17.04;80.06
83102;SHT31;72973;51.784;4.660;2024-02-15T11:32:45;16.91;79.66
83102;SHT31;72973;51.784;4.660;2024-02-15T11:35:24;16.90;80.09
83102;SHT31;72973;51.784;4.660;2024-02-15T11:40:21;17.00;79.07
83102;SHT31;72973;51.784;4.660;2024-02-15T11:43:01;17.10;79.68
83102;SHT31;72973;51.784;4.660;2024-02-15T11:45:29;17.19;78.46
83102;SHT31;72973;51.784;4.660;2024-02-15T11:48:00;17.25;78.70
83102;SHT31;72973;51.784;4.660;2024-02-15T11:50:28;17.24;78.41
83102;SHT31;72973;51.784;4.660;2024-02-15T11:53:03;17.28;78.30
83102;SHT31;72973;51.784;4.660;2024-02-15T11:55:36;17.56;76.98
83102;SHT31;72973;51.784;4.660;2024-02-15T11:58:04;17.98;76.57
83102;SHT31;72973;51.784;4.660;2024-02-15T12:00:37;18.18;75.19
83102;SHT31;72973;51.784;4.660;2024-02-15T12:03:23;18.42;74.62
83102;SHT31;72973;51.784;4.660;2024-02-15T12:06:08;18.65;73.22
83102;SHT31;72973;51.784;4.660;2024-02-15T12:10:35;18.80;71.59
83102;SHT31;72973;51.784;4.660;2024-02-15T12:13:20;19.00;71.19
83102;SHT31;72973;51.784;4.660;2024-02-15T12:16:05;19.68;69.67
83102;SHT31;72973;51.784;4.660;2024-02-15T12:18:50;19.81;68.58
83102;SHT31;72973;51.784;4.660;2024-02-15T12:21:25;19.83;67.86
83102;SHT31;72973;51.784;4.660;2024-02-15T12:23:53;19.76;67.79
83102;SHT31;72973;51.784;4.660;2024-02-15T12:26:20;19.72;67.59
83102;SHT31;72973;51.784;4.660;2024-02-15T12:31:17;19.68;67.58
83102;SHT31;72973;51.784;4.660;2024-02-15T12:33:46;19.17;69.32
83102;SHT31;72973;51.784;4.660;2024-02-15T12:36:14;18.56;71.97
83102;SHT31;72973;51.784;4.660;2024-02-15T12:38:43;18.25;72.02
83102;SHT31;72973;51.784;4.660;2024-02-15T12:41:20;17.82;72.67
83102;SHT31;72973;51.784;4.660;2024-02-15T12:43:52;17.90;72.93
83102;SHT31;72973;51.784;4.660;2024-02-15T12:46:22;17.94;73.00
83102;SHT31;72973;51.784;4.660;2024-02-15T12:51:16;17.76;72.71
83102;SHT31;72973;51.784;4.660;2024-02-15T12:53:42;17.82;71.95
83102;SHT31;72973;51.784;4.660;2024-02-15T12:56:09;18.03;71.40
83102;SHT31;72973;51.784;4.660;2024-02-15T12:58:35;18.17;71.25
83102;SHT31;72973;51.784;4.660;2024-02-15T13:01:02;18.14;70.97
83102;SHT31;72973;51.784;4.660;2024-02-15T13:03:30;18.20;71.08
83102;SHT31;72973;51.784;4.660;2024-02-15T13:05:56;18.31;70.20
83102;SHT31;72973;51.784;4.660;2024-02-15T13:08:23;18.40;70.89
83102;SHT31;72973;51.784;4.660;2024-02-15T13:10:49;18.38;70.02
83102;SHT31;72973;51.784;4.660;2024-02-15T13:13:17;18.32;69.45
83102;SHT31;72973;51.784;4.660;2024-02-15T13:15:43;18.42;70.64
83102;SHT31;72973;51.784;4.660;2024-02-15T13:18:10;18.15;70.01
83102;SHT31;72973;51.784;4.660;2024-02-15T13:20:39;18.08;70.07
83102;SHT31;72973;51.784;4.660;2024-02-15T13:23:08;18.03;70.51
83102;SHT31;72973;51.784;4.660;2024-02-15T13:25:40;17.91;70.56
83102;SHT31;72973;51.784;4.660;2024-02-15T13:28:09;17.84;71.18
83102;SHT31;72973;51.784;4.660;2024-02-15T13:30:39;17.96;71.03
83102;SHT31;72973;51.784;4.660;2024-02-15T13:33:05;17.97;70.91
83102;SHT31;72973;51.784;4.660;2024-02-15T13:35:32;18.31;70.52
83102;SHT31;72973;51.784;4.660;2024-02-15T13:37:58;18.65;68.81
83102;SHT31;72973;51.784;4.660;2024-02-15T13:40:27;18.86;68.22
83102;SHT31;72973;51.784;4.660;2024-02-15T13:42:55;18.97;68.31
83102;SHT31;72973;51.784;4.660;2024-02-15T13:45:28;19.10;68.12
83102;SHT31;72973;51.784;4.660;2024-02-15T13:48:03;19.10;68.24
83102;SHT31;72973;51.784;4.660;2024-02-15T13:50:31;18.89;68.56
83102;SHT31;72973;51.784;4.660;2024-02-15T13:55:01;18.53;69.40
83102;SHT31;72973;51.784;4.660;2024-02-15T13:57:28;18.49;69.30
83102;SHT31;72973;51.784;4.660;2024-02-15T13:59:55;18.34;69.63
83102;SHT31;72973;51.784;4.660;2024-02-15T14:02:21;18.37;69.65
83102;SHT31;72973;51.784;4.660;2024-02-15T14:04:47;18.24;69.41
83102;SHT31;72973;51.784;4.660;2024-02-15T14:07:14;18.27;69.97
83102;SHT31;72973;51.784;4.660;2024-02-15T14:09:40;18.08;69.79
83102;SHT31;72973;51.784;4.660;2024-02-15T14:12:07;18.00;70.56
83102;SHT31;72973;51.784;4.660;2024-02-15T14:14:34;18.01;70.64
83102;SHT31;72973;51.784;4.660;2024-02-15T14:17:00;17.96;70.00
83102;SHT31;72973;51.784;4.660;2024-02-15T14:19:26;17.93;70.10
83102;SHT31;72973;51.784;4.660;2024-02-15T14:21:53;17.93;70.60
83102;SHT31;72973;51.784;4.660;2024-02-15T14:24:21;18.00;70.95
83102;SHT31;72973;51.784;4.660;2024-02-15T14:26:49;17.96;71.02
83102;SHT31;72973;51.784;4.660;2024-02-15T14:29:15;17.98;71.28
83102;SHT31;72973;51.784;4.660;2024-02-15T14:31:46;18.00;70.95
83102;SHT31;72973;51.784;4.660;2024-02-15T14:34:31;18.05;70.78
83102;SHT31;72973;51.784;4.660;2024-02-15T14:36:57;18.08;69.76
83102;SHT31;72973;51.784;4.660;2024-02-15T14:39:27;18.10;69.93
83102;SHT31;72973;51.784;4.660;2024-02-15T14:41:53;18.05;69.65
83102;SHT31;72973;51.784;4.660;2024-02-15T14:44:24;18.14;69.98
83102;SHT31;72973;51.784;4.660;2024-02-15T14:49:16;17.70;71.06
83102;SHT31;72973;51.784;4.660;2024-02-15T14:51:43;17.66;70.75
83102;SHT31;72973;51.784;4.660;2024-02-15T14:54:09;17.75;70.03
83102;SHT31;72973;51.784;4.660;2024-02-15T14:56:36;17.75;70.52
83102;SHT31;72973;51.784;4.660;2024-02-15T15:01:25;17.73;70.13
83102;SHT31;72973;51.784;4.660;2024-02-15T15:03:54;17.79;70.27
83102;SHT31;72973;51.784;4.660;2024-02-15T15:06:24;17.90;70.30
83102;SHT31;72973;51.784;4.660;2024-02-15T15:09:09;17.97;69.91
83102;SHT31;72973;51.784;4.660;2024-02-15T15:11:54;17.96;69.97
83102;SHT31;72973;51.784;4.660;2024-02-15T15:14:39;18.05;70.01
83102;SHT31;72973;51.784;4.660;2024-02-15T15:17:06;18.11;69.40
83102;SHT31;72973;51.784;4.660;2024-02-15T15:19:33;18.10;69.74
83102;SHT31;72973;51.784;4.660;2024-02-15T15:21:59;18.20;69.93
83102;SHT31;72973;51.784;4.660;2024-02-15T15:24:26;18.05;69.32
83102;SHT31;72973;51.784;4.660;2024-02-15T15:26:52;18.05;69.36
83102;SHT31;72973;51.784;4.660;2024-02-15T15:29:19;17.97;69.97
83102;SHT31;72973;51.784;4.660;2024-02-15T15:31:45;17.90;70.01
83102;SHT31;72973;51.784;4.660;2024-02-15T15:34:12;17.94;70.09
83102;SHT31;72973;51.784;4.660;2024-02-15T15:36:38;17.91;70.41
83102;SHT31;72973;51.784;4.660;2024-02-15T15:39:05;17.91;70.13
83102;SHT31;72973;51.784;4.660;2024-02-15T15:41:35;17.89;70.51
83102;SHT31;72973;51.784;4.660;2024-02-15T15:44:01;17.76;69.78
83102;SHT31;72973;51.784;4.660;2024-02-15T15:46:27;17.84;69.73
83102;SHT31;72973;51.784;4.660;2024-02-15T15:48:54;17.72;68.31
83102;SHT31;72973;51.784;4.660;2024-02-15T15:51:20;17.76;67.18
83102;SHT31;72973;51.784;4.660;2024-02-15T15:53:47;17.75;66.40
83102;SHT31;72973;51.784;4.660;2024-02-15T15:56:15;17.70;65.89
83102;SHT31;72973;51.784;4.660;2024-02-15T15:58:42;17.70;66.89
83102;SHT31;72973;51.784;4.660;2024-02-15T16:01:11;17.67;65.98
83102;SHT31;72973;51.784;4.660;2024-02-15T16:03:37;17.69;65.64
83102;SHT31;72973;51.784;4.660;2024-02-15T16:06:06;17.69;65.86